»·PEaware :: N130F KEWR-KJFK

N130F :: KEWR-KJFK

FLIGHT INFORMATION

Flight Status: Arrived
Operator: Privately registered:
United States
More flights under this callsign
Pilot: Anonymous 24489 (24489)
Aircraft: Cessna 700 Citation Longitude
(C700)
More flights by this aircraft type
Origin: KEWR Newark Intl
United States
Destination: KJFK Kennedy Intl
United States
More flights between these airports :: More routes between these airports
Route: EWR4 BREZY V39 CMK V419 JUDDS NELIE MAD V1 DPK
File this flight plan on PilotEdge
Remarks: RMK / SIMBRIEF
Altitude:
(Current/Filed)
11,000ft
Speed:
(Current/Filed)
340kts
Departed: 07-Dec-22 12:37 PM
Arrived: 07-Dec-22 01:19 PM
Distance/Time
Traveled:
17nm/0:42
Distance/Time
To Go:
Arrived

Flight Plot

Page will automatically refresh every two minutes.

Flight plan parsing failed; only flown route is shown


Map Options




Map Legend


Flown Route
Filed Route
Departure Airport
Arrival Airport
Navaid (VOR, NDB)
Fix

Horizontal Profiles

Position Reports

Time Latitude Longitude Heading Altitude Ground
Speed
07-Dec-22 12:26 40.704075 -74.167286 74 16ft 0kts
07-Dec-22 12:27 40.704075 -74.167286 74 16ft 0kts
07-Dec-22 12:28 40.704075 -74.167286 74 16ft 0kts
07-Dec-22 12:29 40.704075 -74.167286 74 16ft 0kts
07-Dec-22 12:30 40.704075 -74.167286 74 16ft 0kts
07-Dec-22 12:31 40.704075 -74.167286 74 16ft 0kts
07-Dec-22 12:32 40.704075 -74.167286 74 16ft 0kts
07-Dec-22 12:33 40.703810 -74.166930 165 17ft 3kts
07-Dec-22 12:34 40.702835 -74.163486 68 13ft 9kts
07-Dec-22 12:35 40.703245 -74.171478 276 17ft 32kts
07-Dec-22 12:36 40.703713 -74.179572 265 19ft 0kts
07-Dec-22 12:37 40.702674 -74.178915 93 19ft 54kts
07-Dec-22 12:38 40.705045 -74.113578 56 2016ft 265kts
07-Dec-22 12:39 40.771250 -74.106648 305 5146ft 242kts
07-Dec-22 12:40 40.770897 -74.187857 267 5242ft 253kts
07-Dec-22 12:41 40.816100 -74.253189 348 10178ft 289kts
07-Dec-22 12:42 40.912446 -74.222251 10 11174ft 393kts
07-Dec-22 12:43 41.018154 -74.185014 10 11170ft 393kts
07-Dec-22 12:44 41.118441 -74.126781 38 11148ft 406kts
07-Dec-22 12:44 41.163433 -74.017303 69 11141ft 410kts
07-Dec-22 12:46 41.208185 -73.850972 69 11147ft 410kts
07-Dec-22 12:47 41.246356 -73.708136 70 11154ft 409kts
07-Dec-22 12:48 41.290295 -73.569518 50 11148ft 407kts
07-Dec-22 12:48 41.356140 -73.479947 42 11148ft 405kts
07-Dec-22 12:49 41.435566 -73.373763 42 11162ft 406kts
07-Dec-22 12:51 41.528806 -73.248717 42 11162ft 407kts
07-Dec-22 12:51 41.595698 -73.160142 42 11165ft 407kts
07-Dec-22 12:52 41.675689 -73.052406 44 11173ft 407kts
07-Dec-22 12:53 41.706934 -72.911276 100 11141ft 407kts
07-Dec-22 12:55 41.632461 -72.781180 160 11142ft 379kts
07-Dec-22 12:55 41.548280 -72.754539 173 11141ft 372kts
07-Dec-22 12:56 41.446651 -72.727476 173 11141ft 373kts
07-Dec-22 12:57 41.357068 -72.703602 175 11146ft 288kts
07-Dec-22 12:58 41.285288 -72.725854 226 10164ft 264kts
07-Dec-22 12:59 41.230827 -72.790340 225 10159ft 264kts
07-Dec-22 13:00 41.175845 -72.855148 225 10157ft 264kts
07-Dec-22 13:01 41.120643 -72.920049 225 10155ft 265kts
07-Dec-22 13:02 41.065453 -72.984793 225 10159ft 265kts
07-Dec-22 13:03 41.010541 -73.049015 225 9803ft 255kts
07-Dec-22 13:04 40.956602 -73.112031 224 7417ft 255kts
07-Dec-22 13:05 40.904498 -73.172821 224 6165ft 246kts
07-Dec-22 13:06 40.852144 -73.233636 224 6155ft 251kts
07-Dec-22 13:07 40.800082 -73.294709 230 6147ft 249kts
07-Dec-22 13:08 40.797234 -73.382818 277 5794ft 247kts
07-Dec-22 13:09 40.807916 -73.467700 277 3590ft 219kts
07-Dec-22 13:10 40.816116 -73.530041 277 3147ft 151kts
07-Dec-22 13:11 40.823178 -73.584694 276 3143ft 151kts
07-Dec-22 13:12 40.822237 -73.636930 214 3159ft 154kts
07-Dec-22 13:13 40.780111 -73.659893 207 3155ft 169kts
07-Dec-22 13:14 40.733906 -73.689871 213 2029ft 196kts
07-Dec-22 13:15 40.692700 -73.730951 215 630ft 149kts
07-Dec-22 13:16 40.660141 -73.756283 207 221ft 137kts
07-Dec-22 13:17 40.637544 -73.773336 216 15ft 42kts
07-Dec-22 13:18 40.636211 -73.775920 304 14ft 0kts
07-Dec-22 13:19 40.634891 -73.778413 211 15ft 21kts
07-Dec-22 13:20 40.636698 -73.786125 299 15ft 29kts
07-Dec-22 13:21 40.641341 -73.796407 304 15ft 29kts
07-Dec-22 13:22 40.647287 -73.808258 300 14ft 55kts
07-Dec-22 13:23 40.650489 -73.810355 144 14ft 6kts
07-Dec-22 13:24 40.650442 -73.810325 159 14ft 0kts
07-Dec-22 13:25 40.650442 -73.810325 159 14ft 0kts
07-Dec-22 13:26 40.650442 -73.810325 159 14ft 0kts
07-Dec-22 13:27 40.650442 -73.810325 159 14ft 0kts
07-Dec-22 13:28 40.650442 -73.810325 159 14ft 0kts
07-Dec-22 13:29 40.650442 -73.810325 159 14ft 0kts
07-Dec-22 13:30 40.650442 -73.810325 159 14ft 0kts
07-Dec-22 13:31 40.650442 -73.810325 159 14ft 0kts
07-Dec-22 13:32 40.650442 -73.810325 159 14ft 0kts

Navigation Log

Ident Type
Flight plan parsing failed, navigation log unavailable